createdAt,value
2024-05-09T00:05:33.300Z,13.10
2024-05-09T00:15:32.817Z,12.40
2024-05-09T00:25:32.473Z,12.90
2024-05-09T00:35:32.232Z,12.30
2024-05-09T00:45:31.720Z,12.20
2024-05-09T00:55:36.837Z,12.90
2024-05-09T01:05:36.493Z,13.50
2024-05-09T01:15:36.146Z,14.30
2024-05-09T01:25:35.754Z,13.80
2024-05-09T01:35:35.369Z,14.30
2024-05-09T01:45:34.922Z,14.50
2024-05-09T01:55:34.638Z,14.90
2024-05-09T02:05:34.201Z,14.50
2024-05-09T02:15:33.778Z,14.40
2024-05-09T02:25:33.525Z,14.40
2024-05-09T02:35:33.727Z,14.60
2024-05-09T02:45:33.652Z,15.50
2024-05-09T02:55:33.698Z,15.50
2024-05-09T03:05:33.895Z,16.60
2024-05-09T03:15:33.862Z,16.20
2024-05-09T03:25:34.237Z,16.70
2024-05-09T03:35:34.097Z,16.10
2024-05-09T03:45:34.024Z,14.00
2024-05-09T03:55:33.994Z,15.10
2024-05-09T04:05:34.218Z,15.50
2024-05-09T04:15:34.236Z,13.90
2024-05-09T04:25:34.050Z,12.80
2024-05-09T04:35:34.108Z,14.20
2024-05-09T04:45:34.034Z,13.30
2024-05-09T04:55:33.996Z,12.80
2024-05-09T05:05:34.142Z,12.90
2024-05-09T05:15:34.012Z,13.30
2024-05-09T05:25:34.079Z,13.10
2024-05-09T05:35:34.383Z,13.90
2024-05-09T05:45:34.167Z,14.10
2024-05-09T05:55:34.270Z,15.40
2024-05-09T06:05:34.374Z,15.30
2024-05-09T06:15:39.494Z,16.10
2024-05-09T06:25:39.197Z,16.80
2024-05-09T06:35:38.886Z,16.80
2024-05-09T06:45:38.362Z,16.10
2024-05-09T06:55:38.249Z,15.20
2024-05-09T07:05:37.638Z,14.70
2024-05-09T07:15:37.273Z,9.90
2024-05-09T07:25:36.965Z,6.90
2024-05-09T07:35:36.908Z,6.30
2024-05-09T07:45:47.498Z,6.10
2024-05-09T07:55:41.659Z,6.30
2024-05-09T08:05:41.413Z,6.20
2024-05-09T08:15:40.923Z,6.60
2024-05-09T08:25:40.433Z,6.70
2024-05-09T08:35:40.109Z,6.20
2024-05-09T08:45:45.622Z,6.50
2024-05-09T08:55:44.891Z,6.10
2024-05-09T09:05:44.514Z,6.10
2024-05-09T09:15:44.116Z,6.40
2024-05-09T09:25:43.705Z,6.30
2024-05-09T09:35:48.839Z,6.10
2024-05-09T09:45:48.490Z,6.30
2024-05-09T09:55:48.110Z,6.60
2024-05-09T10:05:47.864Z,6.70
2024-05-09T10:15:53.377Z,5.90
2024-05-09T10:25:52.602Z,6.60
2024-05-09T10:35:52.121Z,6.60
2024-05-09T10:45:51.802Z,10.60
2024-05-09T10:55:56.901Z,9.90
2024-05-09T11:05:56.587Z,6.40
2024-05-09T11:15:56.160Z,6.30
2024-05-09T11:25:55.806Z,11.50
2024-05-09T11:35:55.583Z,10.40
2024-05-09T11:46:00.839Z,9.60
2024-05-09T11:56:00.345Z,9.00
2024-05-09T12:06:00.086Z,8.20
2024-05-09T12:15:59.682Z,7.10
2024-05-09T12:26:04.756Z,6.60
2024-05-09T12:36:04.392Z,8.00
2024-05-09T12:46:04.065Z,7.00
2024-05-09T12:56:04.817Z,6.80
2024-05-09T13:06:08.937Z,6.80
2024-05-09T13:16:08.638Z,6.50
2024-05-09T13:26:08.173Z,6.60
2024-05-09T13:36:08.184Z,7.60
2024-05-09T13:46:13.395Z,7.10
2024-05-09T13:56:12.938Z,6.50
2024-05-09T14:06:13.133Z,7.00
2024-05-09T14:16:12.527Z,7.00
2024-05-09T14:26:17.591Z,6.20
2024-05-09T14:36:17.283Z,6.10
2024-05-09T14:46:16.948Z,7.20
2024-05-09T14:56:16.962Z,7.20
2024-05-09T15:06:22.130Z,7.70
2024-05-09T15:16:21.865Z,7.00
2024-05-09T15:26:21.355Z,6.90
2024-05-09T15:36:26.481Z,7.20
2024-05-09T15:46:26.205Z,7.00
2024-05-09T15:56:25.721Z,6.50
2024-05-09T16:06:25.357Z,7.00
2024-05-09T16:16:30.575Z,7.00
2024-05-09T16:26:30.124Z,6.70
2024-05-09T16:36:29.776Z,6.90
2024-05-09T16:46:34.886Z,7.00
2024-05-09T16:56:34.517Z,7.80
2024-05-09T17:06:34.206Z,6.80
2024-05-09T17:16:33.871Z,8.00
2024-05-09T17:26:38.986Z,8.60
2024-05-09T17:36:38.601Z,9.10
2024-05-09T17:46:38.230Z,9.60
2024-05-09T17:56:37.847Z,10.50
2024-05-09T18:06:43.021Z,10.50
2024-05-09T18:16:42.621Z,9.40
2024-05-09T18:26:42.240Z,9.20
2024-05-09T18:36:41.905Z,9.20
2024-05-09T18:46:47.042Z,8.80
2024-05-09T18:56:46.626Z,8.80
2024-05-09T19:06:46.311Z,8.50
2024-05-09T19:16:45.875Z,8.90
2024-05-09T19:26:51.003Z,9.40
2024-05-09T19:36:50.651Z,8.90
2024-05-09T19:46:50.278Z,9.20
2024-05-09T19:56:49.878Z,8.80
2024-05-09T20:06:49.837Z,9.30
2024-05-09T20:16:54.997Z,9.10
2024-05-09T20:26:54.581Z,8.50
2024-05-09T20:36:54.208Z,10.20
2024-05-09T20:46:53.851Z,9.70
2024-05-09T20:56:53.590Z,9.40
2024-05-09T21:06:58.798Z,8.60
2024-05-09T21:16:58.449Z,9.00
2024-05-09T21:26:57.992Z,8.80
2024-05-09T21:36:57.613Z,9.20
2024-05-09T21:46:57.237Z,9.80
2024-05-09T21:57:02.327Z,9.60
2024-05-09T22:07:01.917Z,9.70
2024-05-09T22:17:01.630Z,9.70
2024-05-09T22:27:01.149Z,9.10
2024-05-09T22:37:00.782Z,9.00
2024-05-09T22:47:00.541Z,9.70
2024-05-09T22:57:05.626Z,9.70
2024-05-09T23:07:05.270Z,9.50
2024-05-09T23:17:04.836Z,10.10
2024-05-09T23:27:04.473Z,10.10
2024-05-09T23:37:04.087Z,10.10
2024-05-09T23:47:03.835Z,10.30
2024-05-09T23:57:08.957Z,10.00
